Time;durP1;ratioP1;P1;durP2;ratioP2;P2;SDS_P1;SDS_P2;PMS_P1;PMS_P2;Temp;Humidity;BMP_temperature;BMP_pressure;BME280_temperature;BME280_humidity;BME280_pressure;Samples;Min_cycle;Max_cycle;Signal;HPM_P1;HPM_P2
2022/07/05 00:00:05;;;;;;;3.13;2.37;;;26.90;44.10;;;;;;5099927;28;20190;-45
2022/07/05 00:02:31;;;;;;;2.73;1.90;;;26.90;43.90;;;;;;5104922;27;20735;-46
2022/07/05 00:04:57;;;;;;;2.63;2.40;;;26.90;44.00;;;;;;5110653;27;20439;-44
2022/07/05 00:07:22;;;;;;;2.43;2.20;;;26.90;43.70;;;;;;5114161;27;20928;-45
2022/07/05 00:09:51;;;;;;;3.30;2.20;;;26.80;43.90;;;;;;5104350;28;20195;-44
2022/07/05 00:12:18;;;;;;;3.17;2.33;;;26.80;44.00;;;;;;5094040;28;20554;-44
2022/07/05 00:14:45;;;;;;;3.30;2.60;;;26.90;44.10;;;;;;5126420;27;20479;-44
2022/07/05 00:17:11;;;;;;;2.53;2.23;;;26.90;43.90;;;;;;5104476;27;20472;-45
2022/07/05 00:19:38;;;;;;;4.03;2.30;;;26.90;43.70;;;;;;5109393;27;20512;-45
2022/07/05 00:22:04;;;;;;;2.70;2.50;;;26.90;43.90;;;;;;5108458;27;20456;-44
2022/07/05 00:24:29;;;;;;;2.27;2.10;;;26.90;43.80;;;;;;5106939;27;20518;-44
2022/07/05 00:26:55;;;;;;;4.07;2.50;;;27.00;43.60;;;;;;5109312;27;20542;-45
2022/07/05 00:29:21;;;;;;;2.60;2.40;;;26.90;43.70;;;;;;5102059;27;20242;-44
2022/07/05 00:31:46;;;;;;;2.33;2.13;;;26.90;43.70;;;;;;5093902;28;20278;-45
2022/07/05 00:34:12;;;;;;;2.03;1.93;;;26.90;43.80;;;;;;5096843;27;20223;-44
2022/07/05 00:36:38;;;;;;;3.13;2.60;;;26.90;43.90;;;;;;5105573;28;20599;-45
2022/07/05 00:39:05;;;;;;;2.70;2.40;;;26.90;43.90;;;;;;5096965;28;20216;-44
2022/07/05 00:41:31;;;;;;;2.60;2.40;;;26.90;43.80;;;;;;5102693;28;20587;-45
2022/07/05 00:43:59;;;;;;;2.13;2.03;;;26.90;43.70;;;;;;5096472;28;20446;-47
2022/07/05 00:46:26;;;;;;;2.47;2.30;;;26.90;43.80;;;;;;5097392;28;20507;-49
2022/07/05 00:48:53;;;;;;;2.53;2.03;;;26.90;44.10;;;;;;5101314;27;20444;-44
2022/07/05 00:51:19;;;;;;;5.63;2.67;;;26.90;44.00;;;;;;5099907;27;20440;-49
2022/07/05 00:53:45;;;;;;;2.70;2.50;;;26.90;43.80;;;;;;5095402;27;20471;-46
2022/07/05 00:56:11;;;;;;;2.50;2.03;;;26.80;44.00;;;;;;5098038;28;20450;-45
2022/07/05 00:58:37;;;;;;;3.37;1.90;;;26.80;44.10;;;;;;5102341;28;20444;-44
2022/07/05 01:01:05;;;;;;;4.00;2.60;;;26.80;44.10;;;;;;5116030;27;20468;-47
2022/07/05 01:03:31;;;;;;;2.10;2.00;;;26.70;44.10;;;;;;5107869;27;20220;-46
2022/07/05 01:05:58;;;;;;;2.20;2.10;;;26.60;44.40;;;;;;5116719;27;20519;-48
2022/07/05 01:08:24;;;;;;;3.57;2.40;;;26.50;44.40;;;;;;5105456;27;20530;-45
2022/07/05 01:10:51;;;;;;;2.10;2.00;;;26.50;44.50;;;;;;5100640;27;20436;-45
2022/07/05 01:13:17;;;;;;;2.37;2.20;;;26.50;44.50;;;;;;5104716;28;20443;-44
2022/07/05 01:15:43;;;;;;;2.87;2.50;;;26.50;44.50;;;;;;5100215;27;20475;-46
2022/07/05 01:18:09;;;;;;;4.33;2.40;;;26.40;44.60;;;;;;5104875;27;20445;-46
2022/07/05 01:20:36;;;;;;;2.70;2.50;;;26.40;45.00;;;;;;5093619;28;20448;-45
2022/07/05 01:23:02;;;;;;;2.70;2.50;;;26.40;44.90;;;;;;5114147;27;20476;-44
2022/07/05 01:25:29;;;;;;;2.70;2.50;;;26.40;44.80;;;;;;5105465;27;20436;-48
2022/07/05 01:27:56;;;;;;;3.10;2.90;;;26.40;44.80;;;;;;5106450;27;20789;-48
2022/07/05 01:30:23;;;;;;;2.60;2.40;;;26.40;45.00;;;;;;5120721;27;20863;-46
2022/07/05 01:32:49;;;;;;;2.90;2.70;;;26.30;45.00;;;;;;5111904;27;20813;-45
2022/07/05 01:35:20;;;;;;;2.57;2.20;;;26.30;45.00;;;;;;5122159;27;20476;-45
2022/07/05 01:37:47;;;;;;;3.67;2.30;;;26.20;45.10;;;;;;5121056;27;20436;-46
2022/07/05 01:40:13;;;;;;;2.93;2.70;;;26.20;45.30;;;;;;5104368;27;20440;-47
2022/07/05 01:42:39;;;;;;;4.57;2.80;;;26.20;45.40;;;;;;5103243;27;20436;-45
2022/07/05 01:45:05;;;;;;;2.73;2.53;;;26.20;45.30;;;;;;5107890;27;22036;-48
2022/07/05 01:47:36;;;;;;;2.53;2.30;;;26.20;45.30;;;;;;5108290;27;20702;-45
2022/07/05 01:50:04;;;;;;;4.80;2.50;;;26.20;45.30;;;;;;5100168;27;20441;-47
2022/07/05 01:52:31;;;;;;;2.70;2.10;;;26.30;45.40;;;;;;5099236;27;20471;-45
2022/07/05 01:54:58;;;;;;;3.27;1.97;;;26.30;45.40;;;;;;5100348;27;21162;-48
2022/07/05 01:57:23;;;;;;;2.47;2.30;;;26.30;45.00;;;;;;5093053;28;20789;-44
2022/07/05 01:59:49;;;;;;;2.10;2.00;;;26.20;45.20;;;;;;5097834;27;20439;-46
2022/07/05 02:02:15;;;;;;;2.27;2.17;;;26.20;45.30;;;;;;5107926;28;20234;-46
2022/07/05 02:04:41;;;;;;;2.93;2.23;;;26.30;45.30;;;;;;5107032;27;20202;-45
2022/07/05 02:07:08;;;;;;;4.00;2.40;;;26.30;45.20;;;;;;5094218;27;20195;-46
2022/07/05 02:09:34;;;;;;;2.27;2.17;;;26.20;45.10;;;;;;5096077;28;20436;-47
2022/07/05 02:12:01;;;;;;;2.87;2.63;;;26.20;45.00;;;;;;5093742;28;20510;-45
2022/07/05 02:14:27;;;;;;;3.10;2.83;;;26.20;44.90;;;;;;5099499;27;20591;-44
2022/07/05 02:16:52;;;;;;;3.30;2.80;;;26.10;45.10;;;;;;5093288;28;20988;-47
2022/07/05 02:19:18;;;;;;;2.83;2.50;;;26.10;45.10;;;;;;5096461;28;20183;-45
2022/07/05 02:21:44;;;;;;;2.90;2.67;;;26.00;45.10;;;;;;5100531;27;20495;-47
2022/07/05 02:24:10;;;;;;;2.13;2.03;;;25.80;45.40;;;;;;5092926;27;20206;-47
2022/07/05 02:26:36;;;;;;;2.60;2.40;;;25.70;45.60;;;;;;5100159;28;20202;-46
2022/07/05 02:29:03;;;;;;;2.70;2.50;;;25.60;46.20;;;;;;5097348;27;20195;-47
2022/07/05 02:31:29;;;;;;;3.40;2.50;;;25.50;46.60;;;;;;5107126;27;20191;-48
2022/07/05 02:33:55;;;;;;;2.90;2.60;;;25.30;47.00;;;;;;5101284;27;20444;-45
2022/07/05 02:36:21;;;;;;;3.23;2.87;;;25.20;47.20;;;;;;5103668;27;20716;-45
2022/07/05 02:38:47;;;;;;;3.53;2.23;;;25.10;47.20;;;;;;5103675;27;20531;-48
2022/07/05 02:41:12;;;;;;;2.70;2.50;;;25.00;47.50;;;;;;5103912;27;20198;-45
2022/07/05 02:43:39;;;;;;;2.87;2.67;;;24.90;47.60;;;;;;5103222;27;20192;-45
2022/07/05 02:46:06;;;;;;;5.10;2.93;;;25.00;47.70;;;;;;5111490;27;20198;-45
2022/07/05 02:48:34;;;;;;;2.73;2.50;;;24.90;47.50;;;;;;5092837;27;20551;-47
2022/07/05 02:50:59;;;;;;;3.30;2.73;;;24.90;47.90;;;;;;5106225;27;20440;-47
2022/07/05 02:53:25;;;;;;;5.50;2.87;;;24.80;47.80;;;;;;5100618;28;20449;-45
2022/07/05 02:55:51;;;;;;;3.00;2.77;;;24.80;47.70;;;;;;5095815;27;20701;-48
2022/07/05 02:58:17;;;;;;;5.47;2.77;;;24.80;48.50;;;;;;5105299;27;20483;-45
2022/07/05 03:00:47;;;;;;;3.60;2.77;;;24.70;48.20;;;;;;5110708;27;20440;-46
2022/07/05 03:03:14;;;;;;;2.87;2.67;;;24.70;48.10;;;;;;5094936;27;20259;-48
2022/07/05 03:05:39;;;;;;;2.67;2.40;;;24.70;48.10;;;;;;5102503;28;20927;-45
2022/07/05 03:08:06;;;;;;;3.13;2.93;;;24.70;47.90;;;;;;5099725;27;20448;-46
2022/07/05 03:10:32;;;;;;;3.10;2.83;;;24.60;47.80;;;;;;5095854;27;20195;-46
2022/07/05 03:12:57;;;;;;;3.07;2.80;;;24.60;47.90;;;;;;5109161;27;20452;-45
2022/07/05 03:15:23;;;;;;;4.00;3.40;;;24.40;48.10;;;;;;5093867;27;20979;-45
2022/07/05 03:17:49;;;;;;;5.93;3.07;;;24.40;48.90;;;;;;5099732;27;20665;-47
2022/07/05 03:20:14;;;;;;;2.40;2.20;;;24.40;48.30;;;;;;5104697;27;20188;-45
2022/07/05 03:22:40;;;;;;;2.60;2.40;;;24.50;48.20;;;;;;5110706;27;20206;-46
2022/07/05 03:25:06;;;;;;;2.70;2.50;;;24.50;48.40;;;;;;5099265;28;20198;-47
2022/07/05 03:27:32;;;;;;;3.10;2.90;;;24.60;47.90;;;;;;5099160;28;20191;-46
2022/07/05 03:29:57;;;;;;;3.63;2.80;;;24.70;47.90;;;;;;5100464;28;20489;-48
2022/07/05 03:32:23;;;;;;;3.00;2.80;;;24.80;47.50;;;;;;5115484;27;20283;-48
2022/07/05 03:34:48;;;;;;;3.60;2.60;;;24.80;47.20;;;;;;5096389;27;20232;-48
2022/07/05 03:37:14;;;;;;;3.57;2.90;;;24.70;47.20;;;;;;5091895;27;20208;-45
2022/07/05 03:39:40;;;;;;;2.80;2.60;;;24.60;47.30;;;;;;5111143;27;20198;-48
2022/07/05 03:42:06;;;;;;;3.40;3.10;;;24.40;47.40;;;;;;5097501;27;20203;-48
2022/07/05 03:44:32;;;;;;;3.40;3.00;;;24.30;47.90;;;;;;5097821;27;20672;-46
2022/07/05 03:46:58;;;;;;;4.80;2.97;;;24.00;48.30;;;;;;5115662;27;20206;-45
2022/07/05 03:49:24;;;;;;;3.60;3.03;;;23.80;49.00;;;;;;5113353;27;20444;-46
2022/07/05 03:51:50;;;;;;;3.40;3.10;;;23.50;49.40;;;;;;5095276;27;20436;-49
2022/07/05 03:54:15;;;;;;;3.60;3.13;;;23.20;50.10;;;;;;5099937;27;20223;-45
2022/07/05 03:56:41;;;;;;;3.70;3.30;;;23.00;50.70;;;;;;5093775;27;20662;-46
2022/07/05 03:59:07;;;;;;;3.20;3.00;;;23.00;50.90;;;;;;5094066;27;20203;-44
2022/07/05 04:01:32;;;;;;;4.07;2.90;;;23.00;51.00;;;;;;5098951;27;20226;-48
2022/07/05 04:03:58;;;;;;;3.27;2.97;;;23.00;51.00;;;;;;5096584;28;20761;-46
2022/07/05 04:06:24;;;;;;;4.20;3.47;;;23.10;51.20;;;;;;5108349;27;20215;-49
2022/07/05 04:08:50;;;;;;;3.83;3.50;;;23.00;51.60;;;;;;5091223;28;20191;-48
2022/07/05 04:11:16;;;;;;;3.73;3.37;;;23.10;51.70;;;;;;5109406;27;20897;-46
2022/07/05 04:13:42;;;;;;;3.77;3.13;;;23.10;51.60;;;;;;5101018;27;20195;-45
2022/07/05 04:16:08;;;;;;;3.53;3.23;;;23.10;51.40;;;;;;5096608;27;21005;-47
2022/07/05 04:18:34;;;;;;;3.80;3.33;;;23.10;51.50;;;;;;5111345;27;20935;-45
2022/07/05 04:21:00;;;;;;;4.17;3.83;;;22.80;51.90;;;;;;5092202;27;20778;-45
2022/07/05 04:23:26;;;;;;;3.90;3.60;;;22.80;52.10;;;;;;5121374;27;21042;-46
2022/07/05 04:25:51;;;;;;;5.60;3.50;;;22.90;52.30;;;;;;5096633;28;20590;-47
2022/07/05 04:28:17;;;;;;;5.03;3.30;;;22.90;52.20;;;;;;5106199;28;20337;-48
2022/07/05 04:30:43;;;;;;;3.50;3.20;;;23.00;52.10;;;;;;5109192;27;20203;-45
2022/07/05 04:33:08;;;;;;;5.23;3.20;;;23.10;52.10;;;;;;5093901;28;20198;-45
2022/07/05 04:35:34;;;;;;;4.20;3.20;;;23.30;51.80;;;;;;5112122;27;20944;-48
2022/07/05 04:38:00;;;;;;;4.27;3.33;;;23.50;51.40;;;;;;5108299;28;20242;-47
2022/07/05 04:40:25;;;;;;;3.53;3.23;;;23.40;51.20;;;;;;5117813;28;21023;-45
2022/07/05 04:42:51;;;;;;;4.40;4.00;;;23.30;51.60;;;;;;5111612;28;20364;-45
2022/07/05 04:45:17;;;;;;;3.47;3.17;;;23.40;51.70;;;;;;5111970;28;20235;-45
2022/07/05 04:47:42;;;;;;;4.33;2.93;;;23.50;51.30;;;;;;5118793;28;20198;-46
2022/07/05 04:50:08;;;;;;;4.23;3.83;;;23.60;51.10;;;;;;5111023;28;20225;-48
2022/07/05 04:52:34;;;;;;;4.47;3.37;;;23.70;50.90;;;;;;5094825;28;20384;-46
2022/07/05 04:55:00;;;;;;;3.30;2.90;;;23.80;50.60;;;;;;5095664;28;21431;-45
2022/07/05 04:57:26;;;;;;;3.17;2.87;;;23.80;50.60;;;;;;5102209;28;20191;-45
2022/07/05 04:59:51;;;;;;;3.30;3.10;;;23.80;50.60;;;;;;5100395;28;20194;-49
2022/07/05 05:02:17;;;;;;;3.53;3.07;;;23.70;50.70;;;;;;5116538;28;20237;-45
2022/07/05 05:04:43;;;;;;;3.20;3.00;;;23.80;50.90;;;;;;5108475;28;20654;-45
2022/07/05 05:07:08;;;;;;;3.23;2.97;;;23.90;50.30;;;;;;5112598;28;20222;-45
2022/07/05 05:09:34;;;;;;;3.30;2.90;;;23.90;50.20;;;;;;5095047;28;20235;-47
2022/07/05 05:12:00;;;;;;;3.43;3.13;;;24.00;50.40;;;;;;5098111;28;20221;-48
2022/07/05 05:14:25;;;;;;;2.80;2.63;;;24.10;50.00;;;;;;5112441;28;20234;-45
2022/07/05 05:16:51;;;;;;;2.70;2.50;;;24.20;49.80;;;;;;5100735;28;20680;-45
2022/07/05 05:19:17;;;;;;;8.73;3.10;;;24.30;49.60;;;;;;5103807;28;20187;-45
2022/07/05 05:21:42;;;;;;;2.47;2.37;;;24.20;49.50;;;;;;5118387;28;20198;-45
2022/07/05 05:24:08;;;;;;;3.33;2.57;;;24.30;49.90;;;;;;5109209;28;20198;-45
2022/07/05 05:26:34;;;;;;;2.60;2.40;;;24.20;49.90;;;;;;5089827;28;20452;-46
2022/07/05 05:28:59;;;;;;;3.53;3.10;;;24.30;50.10;;;;;;5107426;28;20195;-45
2022/07/05 05:31:25;;;;;;;3.20;2.63;;;24.40;49.90;;;;;;5112087;27;20655;-46
2022/07/05 05:33:51;;;;;;;3.27;2.60;;;24.50;49.70;;;;;;5105304;27;20205;-45
2022/07/05 05:36:16;;;;;;;2.20;2.00;;;24.60;49.30;;;;;;5111719;27;20970;-45
2022/07/05 05:38:42;;;;;;;2.87;2.60;;;24.50;49.40;;;;;;5097791;27;20557;-46
2022/07/05 05:41:08;;;;;;;4.57;2.57;;;24.70;49.50;;;;;;5114688;27;20263;-45
2022/07/05 05:43:33;;;;;;;3.10;2.90;;;24.80;49.10;;;;;;5118591;27;20200;-45
2022/07/05 05:45:59;;;;;;;3.00;2.70;;;25.00;49.10;;;;;;5115444;27;20225;-45
2022/07/05 05:48:25;;;;;;;3.13;2.93;;;25.00;48.60;;;;;;5123647;27;20222;-45
2022/07/05 05:50:51;;;;;;;3.17;2.83;;;25.10;48.70;;;;;;5119135;27;20199;-45
2022/07/05 05:53:17;;;;;;;4.00;3.70;;;25.10;48.70;;;;;;5117262;27;20229;-47
2022/07/05 05:55:43;;;;;;;3.83;2.73;;;25.10;48.60;;;;;;5117976;27;20867;-45
2022/07/05 05:58:15;;;;;;;3.70;3.30;;;25.20;48.50;;;;;;5120839;27;20182;-48
2022/07/05 06:00:42;;;;;;;3.00;2.80;;;25.20;48.70;;;;;;5116971;27;20445;-46
2022/07/05 06:03:07;;;;;;;3.90;2.73;;;25.30;48.50;;;;;;5122071;27;20471;-46
2022/07/05 06:05:33;;;;;;;3.93;2.93;;;25.40;48.50;;;;;;5122852;27;20479;-46
2022/07/05 06:07:59;;;;;;;3.10;2.90;;;25.40;48.40;;;;;;5117197;27;20218;-46
2022/07/05 06:10:27;;;;;;;3.53;3.23;;;25.40;48.40;;;;;;5129916;27;20186;-45
2022/07/05 06:12:55;;;;;;;3.20;2.93;;;25.50;48.30;;;;;;5107858;27;20194;-46
2022/07/05 06:15:21;;;;;;;5.93;2.97;;;25.50;48.40;;;;;;5114037;27;20575;-46
2022/07/05 06:17:48;;;;;;;4.20;3.80;;;25.50;48.40;;;;;;5111729;27;20432;-46
2022/07/05 06:20:25;;;;;;;4.30;3.57;;;25.60;48.40;;;;;;5112895;27;21045;-45
2022/07/05 06:22:51;;;;;;;5.73;3.47;;;25.70;48.30;;;;;;5112364;27;20531;-45
2022/07/05 06:25:17;;;;;;;4.40;3.70;;;25.60;48.30;;;;;;5113921;27;20441;-45
2022/07/05 06:27:45;;;;;;;4.33;3.70;;;25.70;48.30;;;;;;5127589;27;20822;-49
2022/07/05 06:30:14;;;;;;;3.30;3.00;;;25.70;48.10;;;;;;5122179;27;20460;-45
2022/07/05 06:32:39;;;;;;;4.70;3.23;;;25.80;47.90;;;;;;5124639;27;20919;-45
2022/07/05 06:35:06;;;;;;;4.73;3.10;;;25.90;48.00;;;;;;5112834;28;20499;-49
2022/07/05 06:37:42;;;;;;;5.50;3.63;;;25.90;48.00;;;;;;5116893;27;20190;-46
2022/07/05 06:40:09;;;;;;;3.80;2.87;;;26.00;47.60;;;;;;5109591;28;20831;-48
2022/07/05 06:42:35;;;;;;;2.87;2.57;;;26.00;47.00;;;;;;5111272;27;20449;-45
2022/07/05 06:45:00;;;;;;;2.73;2.23;;;26.10;45.80;;;;;;5115045;27;20482;-46
2022/07/05 06:47:26;;;;;;;2.63;2.17;;;26.10;44.90;;;;;;5110363;28;20210;-45
2022/07/05 06:49:51;;;;;;;4.60;2.07;;;26.10;44.50;;;;;;5109743;28;20186;-45
2022/07/05 06:52:17;;;;;;;2.20;2.10;;;26.20;44.70;;;;;;5112134;28;20182;-45
2022/07/05 06:54:43;;;;;;;2.70;2.40;;;26.30;43.70;;;;;;5109369;28;20309;-46
2022/07/05 06:57:08;;;;;;;2.57;2.37;;;26.30;43.00;;;;;;5112047;28;20251;-45
2022/07/05 06:59:34;;;;;;;3.27;2.23;;;26.40;43.10;;;;;;5116663;27;20194;-46
2022/07/05 07:01:59;;;;;;;2.70;2.50;;;26.40;43.00;;;;;;5125323;27;20295;-45
2022/07/05 07:04:25;;;;;;;5.97;2.40;;;26.40;42.70;;;;;;5118404;27;21840;-45
2022/07/05 07:06:50;;;;;;;3.87;2.73;;;26.50;43.60;;;;;;5111999;27;20216;-46
2022/07/05 07:09:20;;;;;;;3.10;2.23;;;26.50;44.10;;;;;;5113668;27;20191;-45
2022/07/05 07:11:47;;;;;;;2.27;2.07;;;26.60;43.90;;;;;;5121256;27;20650;-45
2022/07/05 07:14:12;;;;;;;2.43;2.17;;;26.80;43.70;;;;;;5123872;27;20467;-45
2022/07/05 07:16:38;;;;;;;3.30;2.17;;;26.90;43.10;;;;;;5115398;27;21038;-46
2022/07/05 07:19:04;;;;;;;4.63;2.50;;;27.00;42.10;;;;;;5111804;27;20191;-45
2022/07/05 07:21:29;;;;;;;2.97;2.20;;;27.00;42.10;;;;;;5113218;27;20266;-45
2022/07/05 07:23:55;;;;;;;3.00;2.13;;;27.10;42.20;;;;;;5113740;27;20198;-45
2022/07/05 07:26:20;;;;;;;2.60;2.20;;;27.20;43.20;;;;;;5110214;27;20215;-45
2022/07/05 07:28:46;;;;;;;2.60;2.40;;;27.30;41.60;;;;;;5111336;27;20194;-46
2022/07/05 07:31:11;;;;;;;4.10;2.50;;;27.40;41.90;;;;;;5117267;27;20197;-46
2022/07/05 07:33:37;;;;;;;2.07;1.90;;;27.50;41.20;;;;;;5115788;27;20210;-47
2022/07/05 07:36:03;;;;;;;2.30;2.10;;;27.60;41.00;;;;;;5128129;27;20217;-45
2022/07/05 07:38:29;;;;;;;3.50;1.80;;;27.60;40.60;;;;;;5113637;27;20198;-46
2022/07/05 07:40:54;;;;;;;2.30;2.10;;;27.70;39.70;;;;;;5117354;27;20431;-46
2022/07/05 07:43:20;;;;;;;2.67;1.90;;;27.80;39.60;;;;;;5115242;27;20187;-45
2022/07/05 07:45:45;;;;;;;2.40;2.20;;;27.80;39.30;;;;;;5112936;27;20226;-46
2022/07/05 07:48:11;;;;;;;4.03;1.77;;;27.70;39.40;;;;;;5109957;27;20661;-46
2022/07/05 07:50:37;;;;;;;4.93;2.10;;;27.90;39.70;;;;;;5108625;27;20187;-45
2022/07/05 07:53:03;;;;;;;2.43;2.23;;;27.90;40.40;;;;;;5116044;27;20186;-47
2022/07/05 07:55:29;;;;;;;1.97;1.87;;;28.10;39.60;;;;;;5110100;27;20215;-46
2022/07/05 07:57:55;;;;;;;2.50;2.30;;;28.20;39.60;;;;;;5108860;27;20852;-45
2022/07/05 08:00:21;;;;;;;2.90;2.10;;;28.30;39.00;;;;;;5112188;27;20252;-47
2022/07/05 08:02:46;;;;;;;3.23;2.53;;;28.20;39.10;;;;;;5114032;27;20287;-46
2022/07/05 08:05:12;;;;;;;5.83;2.13;;;28.30;39.80;;;;;;5112596;27;20197;-46
2022/07/05 08:07:38;;;;;;;2.53;2.10;;;28.40;41.00;;;;;;5114148;27;20198;-46
2022/07/05 08:10:05;;;;;;;2.37;2.17;;;28.50;39.90;;;;;;5116126;27;20768;-46
2022/07/05 08:12:30;;;;;;;2.00;1.90;;;28.60;39.60;;;;;;5115342;27;20225;-46
2022/07/05 08:14:56;;;;;;;2.43;2.00;;;28.70;38.60;;;;;;5112542;27;20982;-46
2022/07/05 08:17:22;;;;;;;4.40;2.20;;;28.90;39.00;;;;;;5121649;27;20269;-46
2022/07/05 08:22:32;;;;;;;5.73;2.17;;;29.00;38.30;;;;;;5110702;27;20289;-46
2022/07/05 08:24:58;;;;;;;3.20;2.10;;;29.10;37.50;;;;;;5115458;27;20518;-44
2022/07/05 08:27:24;;;;;;;4.83;2.40;;;29.20;37.90;;;;;;5110459;27;20198;-43
2022/07/05 08:29:49;;;;;;;2.53;1.90;;;29.20;38.60;;;;;;5114206;27;20198;-44
2022/07/05 08:32:16;;;;;;;2.30;2.00;;;29.30;37.80;;;;;;5100127;27;20756;-43
2022/07/05 08:34:42;;;;;;;3.67;2.30;;;29.50;37.50;;;;;;5112714;27;20225;-45
2022/07/05 08:37:09;;;;;;;2.80;2.50;;;29.60;37.90;;;;;;5104613;28;20447;-44
2022/07/05 08:39:35;;;;;;;4.30;2.50;;;29.70;39.50;;;;;;5108676;27;20448;-44
2022/07/05 08:42:02;;;;;;;4.03;2.17;;;29.80;38.50;;;;;;5108833;28;20440;-45
2022/07/05 08:44:29;;;;;;;3.57;2.30;;;29.90;38.10;;;;;;5121749;28;20462;-45
2022/07/05 08:46:56;;;;;;;4.37;2.40;;;30.00;37.50;;;;;;5106446;28;20927;-44
2022/07/05 08:49:24;;;;;;;2.43;2.23;;;29.90;36.30;;;;;;5115599;28;20500;-44
2022/07/05 08:51:51;;;;;;;3.70;2.07;;;30.00;36.50;;;;;;5107686;28;20436;-44
2022/07/05 08:54:17;;;;;;;3.00;1.87;;;30.10;36.70;;;;;;5109843;28;20468;-44
2022/07/05 08:56:44;;;;;;;3.30;2.10;;;30.10;36.70;;;;;;5107035;28;20444;-43
2022/07/05 08:59:10;;;;;;;2.10;1.90;;;30.30;36.60;;;;;;5113831;28;20440;-44
2022/07/05 09:01:36;;;;;;;2.20;2.10;;;30.40;36.30;;;;;;5112720;28;20459;-43
2022/07/05 09:04:05;;;;;;;4.70;2.30;;;30.40;37.10;;;;;;5117203;27;20197;-43
2022/07/05 09:06:35;;;;;;;4.93;2.10;;;30.40;37.10;;;;;;5115719;27;20535;-45
2022/07/05 09:09:01;;;;;;;2.53;2.07;;;30.40;38.40;;;;;;5113287;27;20431;-43
2022/07/05 09:11:36;;;;;;;3.47;1.90;;;30.50;36.40;;;;;;5108629;27;20472;-43
2022/07/05 09:14:04;;;;;;;3.43;2.33;;;30.60;36.70;;;;;;5107355;27;20435;-45
2022/07/05 09:16:32;;;;;;;4.80;1.83;;;30.70;35.70;;;;;;5116301;27;20894;-48
2022/07/05 09:19:05;;;;;;;2.63;2.07;;;30.70;35.40;;;;;;5112051;27;20511;-45
2022/07/05 09:21:31;;;;;;;2.40;1.87;;;30.90;35.20;;;;;;5121856;27;21099;-45
2022/07/05 09:23:59;;;;;;;2.27;2.07;;;31.00;34.90;;;;;;5118371;27;20526;-45
2022/07/05 09:26:43;;;;;;;3.80;1.57;;;31.10;35.30;;;;;;5113044;27;20322;-45
2022/07/05 09:29:14;;;;;;;1.90;1.70;;;31.30;34.80;;;;;;5116173;27;20445;-45
2022/07/05 09:31:42;;;;;;;2.03;1.83;;;31.40;35.20;;;;;;5100930;27;20492;-46
2022/07/05 09:34:09;;;;;;;2.07;1.60;;;31.70;33.80;;;;;;5120738;27;20970;-45
2022/07/05 09:36:54;;;;;;;2.63;1.97;;;31.80;33.30;;;;;;5112253;27;20467;-48
2022/07/05 09:39:29;;;;;;;2.43;1.77;;;32.00;32.30;;;;;;5115504;27;20448;-45
2022/07/05 09:42:13;;;;;;;1.63;1.47;;;32.00;32.00;;;;;;5112972;27;20448;-45
2022/07/05 09:44:43;;;;;;;2.63;2.40;;;32.10;31.30;;;;;;5112115;27;20468;-44
2022/07/05 09:47:10;;;;;;;2.43;1.60;;;32.20;31.30;;;;;;5111365;27;20440;-47
2022/07/05 09:49:44;;;;;;;3.10;1.50;;;32.20;30.60;;;;;;5108423;27;20447;-48
2022/07/05 09:52:11;;;;;;;4.00;1.70;;;32.40;31.60;;;;;;5118740;27;20823;-44
2022/07/05 09:54:37;;;;;;;3.80;1.30;;;32.60;31.80;;;;;;5107524;27;20541;-45
2022/07/05 09:57:03;;;;;;;2.70;1.30;;;32.60;32.50;;;;;;5110321;27;20431;-46
2022/07/05 09:59:29;;;;;;;1.73;1.43;;;32.80;31.40;;;;;;5111306;27;20553;-46
2022/07/05 10:01:54;;;;;;;3.03;1.67;;;33.00;31.50;;;;;;5115294;27;20480;-45
2022/07/05 10:04:20;;;;;;;1.37;1.30;;;33.10;30.10;;;;;;5114642;27;21010;-48
2022/07/05 10:06:47;;;;;;;1.60;1.30;;;33.10;30.60;;;;;;5111932;28;20195;-49
2022/07/05 10:09:14;;;;;;;1.83;1.33;;;33.30;29.80;;;;;;5110843;27;20194;-45
2022/07/05 10:11:41;;;;;;;2.10;1.70;;;33.40;29.50;;;;;;5118111;27;20488;-46
2022/07/05 10:14:15;;;;;;;2.13;1.30;;;33.50;29.20;;;;;;5127767;27;20444;-45
2022/07/05 10:16:45;;;;;;;1.73;1.57;;;33.70;29.00;;;;;;5116380;27;20927;-46
2022/07/05 10:19:19;;;;;;;2.30;1.57;;;33.80;29.70;;;;;;5108607;27;20433;-46
2022/07/05 10:21:45;;;;;;;2.73;1.80;;;34.00;29.70;;;;;;5117865;27;20454;-46
2022/07/05 10:24:12;;;;;;;2.70;1.50;;;34.10;30.30;;;;;;5112625;27;20948;-46
2022/07/05 10:26:39;;;;;;;3.10;1.30;;;34.20;29.80;;;;;;5114145;27;20440;-45
2022/07/05 10:29:07;;;;;;;4.40;1.13;;;34.40;28.90;;;;;;5121176;27;20516;-46
2022/07/05 10:31:32;;;;;;;1.93;1.20;;;34.50;28.10;;;;;;5115912;27;21006;-46
2022/07/05 10:34:07;;;;;;;1.50;1.33;;;34.60;26.80;;;;;;5122362;27;20563;-45
2022/07/05 10:36:34;;;;;;;2.00;1.33;;;34.60;26.80;;;;;;5112614;27;20198;-45
2022/07/05 10:39:00;;;;;;;2.20;1.50;;;34.60;26.70;;;;;;5110884;27;20452;-46
2022/07/05 10:41:29;;;;;;;2.90;2.70;;;34.60;25.80;;;;;;5111726;27;20435;-45
2022/07/05 10:43:55;;;;;;;3.30;2.00;;;34.40;25.40;;;;;;5120406;27;20496;-45
2022/07/05 10:46:37;;;;;;;2.60;1.93;;;34.40;25.70;;;;;;5123873;27;20856;-46
2022/07/05 10:49:14;;;;;;;2.43;2.23;;;34.50;27.20;;;;;;5125313;27;20482;-46
2022/07/05 10:51:40;;;;;;;2.53;1.30;;;34.50;26.00;;;;;;5111480;27;20435;-46
2022/07/05 10:54:05;;;;;;;5.37;1.63;;;34.40;26.10;;;;;;5122319;27;20538;-48
2022/07/05 10:56:31;;;;;;;1.30;1.10;;;34.40;26.30;;;;;;5114320;27;20304;-46
2022/07/05 10:59:11;;;;;;;1.57;1.00;;;34.50;25.70;;;;;;5121181;27;20187;-46
2022/07/05 11:01:39;;;;;;;2.13;1.37;;;34.50;25.10;;;;;;5110370;27;20314;-48
2022/07/05 11:04:05;;;;;;;2.40;1.20;;;34.40;24.40;;;;;;5112748;27;20437;-46
2022/07/05 11:06:38;;;;;;;1.60;1.50;;;34.50;25.40;;;;;;5120706;27;20471;-46
2022/07/05 11:09:03;;;;;;;1.40;1.30;;;34.70;25.30;;;;;;5117520;27;20999;-46
2022/07/05 11:11:34;;;;;;;3.90;1.17;;;34.90;25.40;;;;;;5112999;27;20441;-48
2022/07/05 11:14:01;;;;;;;2.10;1.30;;;35.10;26.20;;;;;;5123095;27;20331;-46
2022/07/05 11:16:36;;;;;;;1.30;1.23;;;35.30;25.10;;;;;;5118791;27;20826;-45
2022/07/05 11:19:16;;;;;;;3.50;1.30;;;35.40;24.10;;;;;;5117620;27;20435;-46
2022/07/05 11:22:00;;;;;;;1.77;1.23;;;35.50;23.90;;;;;;5118089;27;20854;-47
2022/07/05 11:24:28;;;;;;;1.60;1.30;;;35.40;25.20;;;;;;5122480;27;21092;-47
2022/07/05 11:26:58;;;;;;;1.23;1.13;;;35.50;25.00;;;;;;5108134;27;20444;-49
2022/07/05 11:29:41;;;;;;;3.13;1.57;;;35.50;24.10;;;;;;5119712;27;20576;-46
2022/07/05 11:32:10;;;;;;;1.37;0.90;;;35.60;24.60;;;;;;5109800;28;20428;-45
2022/07/05 11:34:36;;;;;;;2.80;1.30;;;35.60;23.70;;;;;;5109720;27;20484;-45
2022/07/05 11:37:14;;;;;;;1.40;1.30;;;35.70;23.80;;;;;;5110303;27;20468;-46
2022/07/05 11:39:44;;;;;;;4.13;1.63;;;35.80;24.10;;;;;;5114999;27;20469;-46
2022/07/05 11:42:10;;;;;;;1.77;1.40;;;35.70;24.70;;;;;;5125433;27;20452;-46
2022/07/05 11:44:40;;;;;;;3.57;1.40;;;35.60;25.40;;;;;;5111578;27;20817;-48
2022/07/05 11:47:06;;;;;;;4.77;1.47;;;35.60;25.40;;;;;;5113763;27;20446;-48
2022/07/05 11:49:32;;;;;;;2.13;1.10;;;35.70;26.10;;;;;;5112899;27;21014;-46
2022/07/05 11:52:02;;;;;;;1.50;1.37;;;35.70;26.00;;;;;;5117039;27;20592;-49
2022/07/05 11:54:30;;;;;;;1.83;1.73;;;35.80;25.80;;;;;;5121866;27;20273;-48
2022/07/05 11:56:56;;;;;;;1.57;1.40;;;35.90;26.10;;;;;;5112219;27;20446;-46
2022/07/05 11:59:23;;;;;;;3.10;1.37;;;36.00;24.80;;;;;;5111835;27;20809;-45
2022/07/05 12:01:50;;;;;;;2.37;1.50;;;36.00;24.50;;;;;;5098354;27;20499;-45
2022/07/05 12:04:25;;;;;;;2.30;1.40;;;36.10;25.50;;;;;;5067811;28;20824;-46
2022/07/05 12:06:51;;;;;;;1.90;1.67;;;36.10;25.30;;;;;;5075828;28;21047;-49
2022/07/05 12:09:25;;;;;;;1.60;1.50;;;36.00;25.00;;;;;;5062150;28;20510;-49
2022/07/05 12:14:45;;;;;;;1.43;1.33;;;36.10;25.90;;;;;;5076292;28;20531;-48
2022/07/05 12:17:16;;;;;;;4.43;1.43;;;36.10;25.40;;;;;;5074778;28;20440;-46
2022/07/05 12:19:41;;;;;;;1.40;1.30;;;36.20;25.50;;;;;;5071968;28;20488;-46
2022/07/05 12:22:07;;;;;;;1.57;1.47;;;36.30;26.10;;;;;;5079122;28;20472;-50
2022/07/05 12:24:34;;;;;;;1.50;1.40;;;36.30;25.60;;;;;;5073131;28;20191;-49
2022/07/05 12:27:00;;;;;;;1.50;1.40;;;36.50;25.90;;;;;;5072500;28;20188;-49
2022/07/05 12:29:27;;;;;;;2.27;1.40;;;36.60;25.00;;;;;;5077110;28;21177;-50
2022/07/05 12:32:04;;;;;;;1.83;1.33;;;36.60;24.10;;;;;;5077291;28;20188;-45
2022/07/05 12:34:30;;;;;;;1.73;1.63;;;36.70;22.60;;;;;;5073247;28;20501;-49
2022/07/05 12:36:58;;;;;;;4.40;1.30;;;36.70;23.20;;;;;;5069021;28;20476;-49
2022/07/05 12:39:23;;;;;;;1.33;1.23;;;36.70;22.90;;;;;;5078880;28;20198;-49
2022/07/05 12:41:49;;;;;;;2.50;1.30;;;36.80;22.60;;;;;;5080506;28;20914;-46
2022/07/05 12:44:19;;;;;;;3.63;1.30;;;36.80;22.20;;;;;;5071144;28;20770;-46
2022/07/05 12:46:45;;;;;;;1.53;1.40;;;36.90;22.80;;;;;;5075396;28;20210;-49
2022/07/05 12:49:11;;;;;;;3.60;1.40;;;36.70;22.30;;;;;;5081913;28;20437;-47
2022/07/05 12:51:38;;;;;;;1.73;1.60;;;36.70;22.40;;;;;;5065717;28;20519;-45